sensor_id;sensor_type;location;lat;lon;timestamp;P1;durP1;ratioP1;P2;durP2;ratioP2
54831;SDS011;40730;53.068;6.572;2023-05-07T00:01:55;39.83;;;28.05;;
54831;SDS011;40730;53.068;6.572;2023-05-07T00:04:21;34.95;;;26.55;;
54831;SDS011;40730;53.068;6.572;2023-05-07T00:06:47;40.47;;;27.60;;
54831;SDS011;40730;53.068;6.572;2023-05-07T00:09:13;43.45;;;27.90;;
54831;SDS011;40730;53.068;6.572;2023-05-07T00:11:39;40.80;;;27.63;;
54831;SDS011;40730;53.068;6.572;2023-05-07T00:14:05;40.03;;;27.10;;
54831;SDS011;40730;53.068;6.572;2023-05-07T00:16:31;42.58;;;27.55;;
54831;SDS011;40730;53.068;6.572;2023-05-07T00:18:56;42.05;;;28.83;;
54831;SDS011;40730;53.068;6.572;2023-05-07T00:21:22;45.75;;;29.33;;
54831;SDS011;40730;53.068;6.572;2023-05-07T00:23:48;46.50;;;29.27;;
54831;SDS011;40730;53.068;6.572;2023-05-07T00:26:13;45.10;;;29.85;;
54831;SDS011;40730;53.068;6.572;2023-05-07T00:28:39;49.38;;;30.90;;
54831;SDS011;40730;53.068;6.572;2023-05-07T00:31:04;51.75;;;31.00;;
54831;SDS011;40730;53.068;6.572;2023-05-07T00:33:30;42.67;;;28.30;;
54831;SDS011;40730;53.068;6.572;2023-05-07T00:35:55;51.88;;;29.90;;
54831;SDS011;40730;53.068;6.572;2023-05-07T00:38:21;53.58;;;31.52;;
54831;SDS011;40730;53.068;6.572;2023-05-07T00:40:47;45.22;;;30.60;;
54831;SDS011;40730;53.068;6.572;2023-05-07T00:43:12;48.67;;;30.52;;
54831;SDS011;40730;53.068;6.572;2023-05-07T00:45:38;46.13;;;30.95;;
54831;SDS011;40730;53.068;6.572;2023-05-07T00:48:04;54.28;;;31.38;;
54831;SDS011;40730;53.068;6.572;2023-05-07T00:50:30;53.28;;;32.78;;
54831;SDS011;40730;53.068;6.572;2023-05-07T00:52:56;55.65;;;32.35;;
54831;SDS011;40730;53.068;6.572;2023-05-07T00:55:22;54.15;;;33.75;;
54831;SDS011;40730;53.068;6.572;2023-05-07T00:57:49;54.95;;;32.63;;
54831;SDS011;40730;53.068;6.572;2023-05-07T01:00:15;53.25;;;31.88;;
54831;SDS011;40730;53.068;6.572;2023-05-07T01:02:42;51.90;;;32.33;;
54831;SDS011;40730;53.068;6.572;2023-05-07T01:05:09;54.25;;;32.08;;
54831;SDS011;40730;53.068;6.572;2023-05-07T01:07:39;54.15;;;33.65;;
54831;SDS011;40730;53.068;6.572;2023-05-07T01:10:07;55.35;;;32.58;;
54831;SDS011;40730;53.068;6.572;2023-05-07T01:12:34;52.30;;;33.00;;
54831;SDS011;40730;53.068;6.572;2023-05-07T01:15:04;54.53;;;34.28;;
54831;SDS011;40730;53.068;6.572;2023-05-07T01:17:35;53.05;;;33.25;;
54831;SDS011;40730;53.068;6.572;2023-05-07T01:20:03;55.67;;;33.80;;
54831;SDS011;40730;53.068;6.572;2023-05-07T01:22:34;59.08;;;33.20;;
54831;SDS011;40730;53.068;6.572;2023-05-07T01:25:01;53.85;;;32.13;;
54831;SDS011;40730;53.068;6.572;2023-05-07T01:27:28;56.40;;;32.78;;
54831;SDS011;40730;53.068;6.572;2023-05-07T01:29:53;58.33;;;34.08;;
54831;SDS011;40730;53.068;6.572;2023-05-07T01:32:21;56.05;;;34.53;;
54831;SDS011;40730;53.068;6.572;2023-05-07T01:34:55;57.97;;;33.60;;
54831;SDS011;40730;53.068;6.572;2023-05-07T01:37:22;60.72;;;34.83;;
54831;SDS011;40730;53.068;6.572;2023-05-07T01:39:49;54.28;;;32.58;;
54831;SDS011;40730;53.068;6.572;2023-05-07T01:42:15;53.60;;;34.83;;
54831;SDS011;40730;53.068;6.572;2023-05-07T01:44:41;55.17;;;33.15;;
54831;SDS011;40730;53.068;6.572;2023-05-07T01:47:06;62.22;;;35.75;;
54831;SDS011;40730;53.068;6.572;2023-05-07T01:49:33;58.67;;;34.97;;
54831;SDS011;40730;53.068;6.572;2023-05-07T01:51:59;61.40;;;36.28;;
54831;SDS011;40730;53.068;6.572;2023-05-07T01:54:26;53.33;;;31.88;;
54831;SDS011;40730;53.068;6.572;2023-05-07T01:56:56;57.15;;;34.72;;
54831;SDS011;40730;53.068;6.572;2023-05-07T01:59:22;58.55;;;35.20;;
54831;SDS011;40730;53.068;6.572;2023-05-07T02:01:47;61.45;;;34.75;;
54831;SDS011;40730;53.068;6.572;2023-05-07T02:04:13;55.55;;;35.55;;
54831;SDS011;40730;53.068;6.572;2023-05-07T02:06:38;59.95;;;36.20;;
54831;SDS011;40730;53.068;6.572;2023-05-07T02:09:04;61.42;;;37.05;;
54831;SDS011;40730;53.068;6.572;2023-05-07T02:11:30;58.88;;;36.00;;
54831;SDS011;40730;53.068;6.572;2023-05-07T02:13:55;62.08;;;37.28;;
54831;SDS011;40730;53.068;6.572;2023-05-07T02:16:21;64.22;;;37.40;;
54831;SDS011;40730;53.068;6.572;2023-05-07T02:18:48;67.70;;;38.65;;
54831;SDS011;40730;53.068;6.572;2023-05-07T02:21:13;62.33;;;37.88;;
54831;SDS011;40730;53.068;6.572;2023-05-07T02:23:39;64.03;;;37.85;;
54831;SDS011;40730;53.068;6.572;2023-05-07T02:26:05;65.07;;;38.95;;
54831;SDS011;40730;53.068;6.572;2023-05-07T02:28:31;62.35;;;39.38;;
54831;SDS011;40730;53.068;6.572;2023-05-07T02:30:56;69.07;;;39.38;;
54831;SDS011;40730;53.068;6.572;2023-05-07T02:33:24;66.93;;;39.30;;
54831;SDS011;40730;53.068;6.572;2023-05-07T02:35:50;66.68;;;38.70;;
54831;SDS011;40730;53.068;6.572;2023-05-07T02:38:17;67.72;;;40.25;;
54831;SDS011;40730;53.068;6.572;2023-05-07T02:40:42;69.28;;;39.55;;
54831;SDS011;40730;53.068;6.572;2023-05-07T02:43:09;72.97;;;40.30;;
54831;SDS011;40730;53.068;6.572;2023-05-07T02:45:34;69.57;;;40.47;;
54831;SDS011;40730;53.068;6.572;2023-05-07T02:48:02;75.40;;;41.13;;
54831;SDS011;40730;53.068;6.572;2023-05-07T02:50:28;69.25;;;39.55;;
54831;SDS011;40730;53.068;6.572;2023-05-07T02:52:54;75.50;;;41.13;;
54831;SDS011;40730;53.068;6.572;2023-05-07T02:55:20;79.28;;;41.25;;
54831;SDS011;40730;53.068;6.572;2023-05-07T02:57:46;73.72;;;40.10;;
54831;SDS011;40730;53.068;6.572;2023-05-07T03:00:15;75.03;;;40.13;;
54831;SDS011;40730;53.068;6.572;2023-05-07T03:02:43;76.60;;;41.10;;
54831;SDS011;40730;53.068;6.572;2023-05-07T03:05:09;74.00;;;41.28;;
54831;SDS011;40730;53.068;6.572;2023-05-07T03:07:35;77.18;;;42.65;;
54831;SDS011;40730;53.068;6.572;2023-05-07T03:10:01;70.13;;;39.97;;
54831;SDS011;40730;53.068;6.572;2023-05-07T03:12:26;80.38;;;42.28;;
54831;SDS011;40730;53.068;6.572;2023-05-07T03:14:52;82.85;;;42.63;;
54831;SDS011;40730;53.068;6.572;2023-05-07T03:17:17;75.38;;;41.78;;
54831;SDS011;40730;53.068;6.572;2023-05-07T03:19:43;80.55;;;43.10;;
54831;SDS011;40730;53.068;6.572;2023-05-07T03:22:08;84.68;;;42.92;;
54831;SDS011;40730;53.068;6.572;2023-05-07T03:24:34;78.07;;;42.08;;
54831;SDS011;40730;53.068;6.572;2023-05-07T03:26:59;81.35;;;42.67;;
54831;SDS011;40730;53.068;6.572;2023-05-07T03:29:26;86.82;;;44.08;;
54831;SDS011;40730;53.068;6.572;2023-05-07T03:31:51;82.05;;;43.15;;
54831;SDS011;40730;53.068;6.572;2023-05-07T03:34:17;84.07;;;44.15;;
54831;SDS011;40730;53.068;6.572;2023-05-07T03:36:47;76.63;;;40.13;;
54831;SDS011;40730;53.068;6.572;2023-05-07T03:39:16;82.03;;;43.17;;
54831;SDS011;40730;53.068;6.572;2023-05-07T03:41:41;85.18;;;44.60;;
54831;SDS011;40730;53.068;6.572;2023-05-07T03:44:07;86.03;;;44.03;;
54831;SDS011;40730;53.068;6.572;2023-05-07T03:46:33;81.35;;;43.63;;
54831;SDS011;40730;53.068;6.572;2023-05-07T03:48:59;87.65;;;45.20;;
54831;SDS011;40730;53.068;6.572;2023-05-07T03:51:25;83.50;;;44.92;;
54831;SDS011;40730;53.068;6.572;2023-05-07T03:53:51;85.93;;;43.20;;
54831;SDS011;40730;53.068;6.572;2023-05-07T03:56:22;79.40;;;41.72;;
54831;SDS011;40730;53.068;6.572;2023-05-07T03:58:48;83.57;;;43.25;;
54831;SDS011;40730;53.068;6.572;2023-05-07T04:01:13;76.55;;;38.88;;
54831;SDS011;40730;53.068;6.572;2023-05-07T04:03:39;73.65;;;42.13;;
54831;SDS011;40730;53.068;6.572;2023-05-07T04:06:05;75.28;;;41.00;;
54831;SDS011;40730;53.068;6.572;2023-05-07T04:08:31;74.43;;;42.03;;
54831;SDS011;40730;53.068;6.572;2023-05-07T04:10:56;74.05;;;40.97;;
54831;SDS011;40730;53.068;6.572;2023-05-07T04:13:22;79.63;;;42.38;;
54831;SDS011;40730;53.068;6.572;2023-05-07T04:15:48;77.28;;;42.92;;
54831;SDS011;40730;53.068;6.572;2023-05-07T04:18:14;71.53;;;40.55;;
54831;SDS011;40730;53.068;6.572;2023-05-07T04:20:40;75.50;;;42.20;;
54831;SDS011;40730;53.068;6.572;2023-05-07T04:23:06;70.30;;;40.40;;
54831;SDS011;40730;53.068;6.572;2023-05-07T04:25:34;71.35;;;40.05;;
54831;SDS011;40730;53.068;6.572;2023-05-07T04:28:00;73.80;;;40.38;;
54831;SDS011;40730;53.068;6.572;2023-05-07T04:30:26;63.90;;;37.10;;
54831;SDS011;40730;53.068;6.572;2023-05-07T04:32:52;66.82;;;39.40;;
54831;SDS011;40730;53.068;6.572;2023-05-07T04:35:21;61.45;;;37.42;;
54831;SDS011;40730;53.068;6.572;2023-05-07T04:37:47;67.70;;;39.58;;
54831;SDS011;40730;53.068;6.572;2023-05-07T04:40:12;69.15;;;38.72;;
54831;SDS011;40730;53.068;6.572;2023-05-07T04:42:38;75.75;;;42.08;;
54831;SDS011;40730;53.068;6.572;2023-05-07T04:45:03;65.28;;;39.75;;
54831;SDS011;40730;53.068;6.572;2023-05-07T04:47:29;69.18;;;39.78;;
54831;SDS011;40730;53.068;6.572;2023-05-07T04:49:55;69.90;;;38.28;;
54831;SDS011;40730;53.068;6.572;2023-05-07T04:52:22;64.72;;;37.55;;
54831;SDS011;40730;53.068;6.572;2023-05-07T04:54:47;60.70;;;35.28;;
54831;SDS011;40730;53.068;6.572;2023-05-07T04:57:13;62.95;;;36.22;;
54831;SDS011;40730;53.068;6.572;2023-05-07T04:59:39;62.53;;;35.78;;
54831;SDS011;40730;53.068;6.572;2023-05-07T05:02:04;67.55;;;38.10;;
54831;SDS011;40730;53.068;6.572;2023-05-07T05:04:30;67.95;;;38.47;;
54831;SDS011;40730;53.068;6.572;2023-05-07T05:06:56;64.63;;;37.55;;
54831;SDS011;40730;53.068;6.572;2023-05-07T05:09:21;61.55;;;37.97;;
54831;SDS011;40730;53.068;6.572;2023-05-07T05:11:47;69.38;;;40.05;;
54831;SDS011;40730;53.068;6.572;2023-05-07T05:14:13;62.78;;;38.67;;
54831;SDS011;40730;53.068;6.572;2023-05-07T05:16:38;61.92;;;36.97;;
54831;SDS011;40730;53.068;6.572;2023-05-07T05:19:04;65.18;;;37.72;;
54831;SDS011;40730;53.068;6.572;2023-05-07T05:21:30;56.70;;;33.95;;
54831;SDS011;40730;53.068;6.572;2023-05-07T05:23:56;54.97;;;33.35;;
54831;SDS011;40730;53.068;6.572;2023-05-07T05:26:22;58.58;;;34.58;;
54831;SDS011;40730;53.068;6.572;2023-05-07T05:28:48;53.20;;;34.53;;
54831;SDS011;40730;53.068;6.572;2023-05-07T05:31:14;58.58;;;35.97;;
54831;SDS011;40730;53.068;6.572;2023-05-07T05:33:40;52.17;;;33.80;;
54831;SDS011;40730;53.068;6.572;2023-05-07T05:36:07;51.03;;;34.05;;
54831;SDS011;40730;53.068;6.572;2023-05-07T05:38:35;52.13;;;32.13;;
54831;SDS011;40730;53.068;6.572;2023-05-07T05:41:01;49.92;;;32.35;;
54831;SDS011;40730;53.068;6.572;2023-05-07T05:43:26;50.78;;;32.47;;
54831;SDS011;40730;53.068;6.572;2023-05-07T05:45:52;51.97;;;32.17;;
54831;SDS011;40730;53.068;6.572;2023-05-07T05:48:18;49.22;;;32.17;;
54831;SDS011;40730;53.068;6.572;2023-05-07T05:50:43;51.25;;;30.95;;
54831;SDS011;40730;53.068;6.572;2023-05-07T05:53:09;50.75;;;31.65;;
54831;SDS011;40730;53.068;6.572;2023-05-07T05:55:34;48.38;;;31.90;;
54831;SDS011;40730;53.068;6.572;2023-05-07T05:58:00;47.53;;;30.55;;
54831;SDS011;40730;53.068;6.572;2023-05-07T06:00:26;47.97;;;30.80;;
54831;SDS011;40730;53.068;6.572;2023-05-07T06:02:52;45.42;;;30.40;;
54831;SDS011;40730;53.068;6.572;2023-05-07T06:05:18;46.10;;;30.85;;
54831;SDS011;40730;53.068;6.572;2023-05-07T06:07:43;41.40;;;29.42;;
54831;SDS011;40730;53.068;6.572;2023-05-07T06:10:09;44.45;;;29.40;;
54831;SDS011;40730;53.068;6.572;2023-05-07T06:12:35;44.08;;;29.55;;
54831;SDS011;40730;53.068;6.572;2023-05-07T06:15:01;41.95;;;28.98;;
54831;SDS011;40730;53.068;6.572;2023-05-07T06:17:26;38.17;;;28.50;;
54831;SDS011;40730;53.068;6.572;2023-05-07T06:19:52;41.65;;;29.58;;
54831;SDS011;40730;53.068;6.572;2023-05-07T06:22:18;39.08;;;27.85;;
54831;SDS011;40730;53.068;6.572;2023-05-07T06:24:44;38.92;;;28.20;;
54831;SDS011;40730;53.068;6.572;2023-05-07T06:27:09;38.67;;;25.38;;
54831;SDS011;40730;53.068;6.572;2023-05-07T06:29:35;40.38;;;28.58;;
54831;SDS011;40730;53.068;6.572;2023-05-07T06:32:07;37.60;;;27.25;;
54831;SDS011;40730;53.068;6.572;2023-05-07T06:34:37;42.60;;;28.20;;
54831;SDS011;40730;53.068;6.572;2023-05-07T06:37:04;41.70;;;27.30;;
54831;SDS011;40730;53.068;6.572;2023-05-07T06:39:30;39.22;;;27.55;;
54831;SDS011;40730;53.068;6.572;2023-05-07T06:41:55;37.95;;;27.63;;
54831;SDS011;40730;53.068;6.572;2023-05-07T06:44:21;37.88;;;26.92;;
54831;SDS011;40730;53.068;6.572;2023-05-07T06:46:47;36.97;;;27.45;;
54831;SDS011;40730;53.068;6.572;2023-05-07T06:49:13;33.50;;;25.77;;
54831;SDS011;40730;53.068;6.572;2023-05-07T06:51:39;31.42;;;24.58;;
54831;SDS011;40730;53.068;6.572;2023-05-07T06:54:04;39.42;;;27.25;;
54831;SDS011;40730;53.068;6.572;2023-05-07T06:56:30;36.47;;;26.40;;
54831;SDS011;40730;53.068;6.572;2023-05-07T06:58:56;36.15;;;26.77;;
54831;SDS011;40730;53.068;6.572;2023-05-07T07:01:22;38.00;;;26.60;;
54831;SDS011;40730;53.068;6.572;2023-05-07T07:03:48;35.08;;;25.92;;
54831;SDS011;40730;53.068;6.572;2023-05-07T07:06:13;38.17;;;26.58;;
54831;SDS011;40730;53.068;6.572;2023-05-07T07:08:39;34.10;;;26.55;;
54831;SDS011;40730;53.068;6.572;2023-05-07T07:11:05;30.95;;;24.38;;
54831;SDS011;40730;53.068;6.572;2023-05-07T07:13:31;37.90;;;26.23;;
54831;SDS011;40730;53.068;6.572;2023-05-07T07:15:57;37.35;;;26.75;;
54831;SDS011;40730;53.068;6.572;2023-05-07T07:18:23;38.13;;;26.60;;
54831;SDS011;40730;53.068;6.572;2023-05-07T07:20:48;33.53;;;25.17;;
54831;SDS011;40730;53.068;6.572;2023-05-07T07:23:14;38.45;;;26.48;;
54831;SDS011;40730;53.068;6.572;2023-05-07T07:25:40;34.70;;;25.90;;
54831;SDS011;40730;53.068;6.572;2023-05-07T07:28:05;34.40;;;25.20;;
54831;SDS011;40730;53.068;6.572;2023-05-07T07:30:31;34.70;;;25.92;;
54831;SDS011;40730;53.068;6.572;2023-05-07T07:32:57;33.90;;;25.02;;
54831;SDS011;40730;53.068;6.572;2023-05-07T07:35:28;36.25;;;26.48;;
54831;SDS011;40730;53.068;6.572;2023-05-07T07:37:54;34.40;;;24.95;;
54831;SDS011;40730;53.068;6.572;2023-05-07T07:40:19;35.67;;;25.67;;
54831;SDS011;40730;53.068;6.572;2023-05-07T07:42:45;34.28;;;26.02;;
54831;SDS011;40730;53.068;6.572;2023-05-07T07:45:11;36.72;;;26.45;;
54831;SDS011;40730;53.068;6.572;2023-05-07T07:47:37;37.28;;;26.48;;
54831;SDS011;40730;53.068;6.572;2023-05-07T07:50:03;36.17;;;25.17;;
54831;SDS011;40730;53.068;6.572;2023-05-07T07:52:29;36.95;;;26.15;;
54831;SDS011;40730;53.068;6.572;2023-05-07T07:54:54;36.53;;;26.75;;
54831;SDS011;40730;53.068;6.572;2023-05-07T07:57:20;35.05;;;24.10;;
54831;SDS011;40730;53.068;6.572;2023-05-07T07:59:45;34.45;;;25.73;;
54831;SDS011;40730;53.068;6.572;2023-05-07T08:02:11;34.80;;;25.00;;
54831;SDS011;40730;53.068;6.572;2023-05-07T08:04:37;35.65;;;25.05;;
54831;SDS011;40730;53.068;6.572;2023-05-07T08:07:02;33.60;;;24.58;;
54831;SDS011;40730;53.068;6.572;2023-05-07T08:09:28;33.03;;;24.42;;
54831;SDS011;40730;53.068;6.572;2023-05-07T08:11:54;35.28;;;25.20;;
54831;SDS011;40730;53.068;6.572;2023-05-07T08:14:19;32.25;;;24.45;;
54831;SDS011;40730;53.068;6.572;2023-05-07T08:16:45;34.20;;;24.85;;
54831;SDS011;40730;53.068;6.572;2023-05-07T08:19:11;33.03;;;25.58;;
54831;SDS011;40730;53.068;6.572;2023-05-07T08:21:38;35.75;;;23.92;;
54831;SDS011;40730;53.068;6.572;2023-05-07T08:24:05;33.22;;;23.65;;
54831;SDS011;40730;53.068;6.572;2023-05-07T08:26:30;31.30;;;24.42;;
54831;SDS011;40730;53.068;6.572;2023-05-07T08:28:56;30.75;;;23.75;;
54831;SDS011;40730;53.068;6.572;2023-05-07T08:31:21;33.83;;;24.63;;
54831;SDS011;40730;53.068;6.572;2023-05-07T08:33:47;29.60;;;23.17;;
54831;SDS011;40730;53.068;6.572;2023-05-07T08:36:13;32.10;;;23.92;;
54831;SDS011;40730;53.068;6.572;2023-05-07T08:38:38;34.13;;;24.38;;
54831;SDS011;40730;53.068;6.572;2023-05-07T08:41:05;30.85;;;25.05;;
54831;SDS011;40730;53.068;6.572;2023-05-07T08:43:32;29.42;;;23.05;;
54831;SDS011;40730;53.068;6.572;2023-05-07T08:46:00;33.10;;;24.17;;
54831;SDS011;40730;53.068;6.572;2023-05-07T08:48:27;31.05;;;23.95;;
54831;SDS011;40730;53.068;6.572;2023-05-07T08:50:55;30.23;;;23.50;;
54831;SDS011;40730;53.068;6.572;2023-05-07T08:53:22;29.48;;;22.95;;
54831;SDS011;40730;53.068;6.572;2023-05-07T08:55:48;31.88;;;21.40;;
54831;SDS011;40730;53.068;6.572;2023-05-07T08:58:13;30.67;;;22.02;;
54831;SDS011;40730;53.068;6.572;2023-05-07T09:00:40;25.75;;;21.00;;
54831;SDS011;40730;53.068;6.572;2023-05-07T09:03:06;27.90;;;22.02;;
54831;SDS011;40730;53.068;6.572;2023-05-07T09:05:32;28.48;;;21.88;;
54831;SDS011;40730;53.068;6.572;2023-05-07T09:08:04;28.58;;;22.10;;
54831;SDS011;40730;53.068;6.572;2023-05-07T09:10:32;27.65;;;21.67;;
54831;SDS011;40730;53.068;6.572;2023-05-07T09:12:59;27.35;;;22.10;;
54831;SDS011;40730;53.068;6.572;2023-05-07T09:15:25;26.83;;;20.42;;
54831;SDS011;40730;53.068;6.572;2023-05-07T09:17:51;27.48;;;19.42;;
54831;SDS011;40730;53.068;6.572;2023-05-07T09:20:17;24.20;;;19.83;;
54831;SDS011;40730;53.068;6.572;2023-05-07T09:22:42;24.92;;;20.15;;
54831;SDS011;40730;53.068;6.572;2023-05-07T09:25:09;21.98;;;19.13;;
54831;SDS011;40730;53.068;6.572;2023-05-07T09:27:35;22.98;;;18.83;;
54831;SDS011;40730;53.068;6.572;2023-05-07T09:30:04;22.88;;;18.23;;
54831;SDS011;40730;53.068;6.572;2023-05-07T09:32:33;23.35;;;18.55;;
54831;SDS011;40730;53.068;6.572;2023-05-07T09:35:00;22.02;;;18.35;;
54831;SDS011;40730;53.068;6.572;2023-05-07T09:37:26;20.30;;;18.02;;
54831;SDS011;40730;53.068;6.572;2023-05-07T09:39:52;19.33;;;16.88;;
54831;SDS011;40730;53.068;6.572;2023-05-07T09:42:22;20.65;;;17.48;;
54831;SDS011;40730;53.068;6.572;2023-05-07T09:44:53;19.65;;;17.05;;
54831;SDS011;40730;53.068;6.572;2023-05-07T09:47:19;19.58;;;17.48;;
54831;SDS011;40730;53.068;6.572;2023-05-07T09:49:48;19.95;;;16.17;;
54831;SDS011;40730;53.068;6.572;2023-05-07T09:52:15;19.48;;;16.60;;
54831;SDS011;40730;53.068;6.572;2023-05-07T09:54:41;19.38;;;16.77;;
54831;SDS011;40730;53.068;6.572;2023-05-07T09:57:10;19.70;;;16.88;;
54831;SDS011;40730;53.068;6.572;2023-05-07T09:59:37;18.90;;;15.90;;
54831;SDS011;40730;53.068;6.572;2023-05-07T10:02:04;18.90;;;16.10;;
54831;SDS011;40730;53.068;6.572;2023-05-07T10:04:30;18.05;;;16.13;;
54831;SDS011;40730;53.068;6.572;2023-05-07T10:06:56;20.63;;;16.45;;
54831;SDS011;40730;53.068;6.572;2023-05-07T10:09:23;18.45;;;16.38;;
54831;SDS011;40730;53.068;6.572;2023-05-07T10:11:51;18.38;;;16.02;;
54831;SDS011;40730;53.068;6.572;2023-05-07T10:14:17;18.10;;;16.05;;
54831;SDS011;40730;53.068;6.572;2023-05-07T10:16:44;19.58;;;15.75;;
54831;SDS011;40730;53.068;6.572;2023-05-07T10:19:12;20.27;;;16.55;;
54831;SDS011;40730;53.068;6.572;2023-05-07T10:21:39;16.25;;;14.65;;
54831;SDS011;40730;53.068;6.572;2023-05-07T10:24:19;18.05;;;15.68;;
54831;SDS011;40730;53.068;6.572;2023-05-07T10:34:37;17.48;;;15.40;;
54831;SDS011;40730;53.068;6.572;2023-05-07T10:37:06;16.83;;;14.85;;
54831;SDS011;40730;53.068;6.572;2023-05-07T10:39:32;16.20;;;14.50;;
54831;SDS011;40730;53.068;6.572;2023-05-07T10:42:12;15.98;;;14.38;;
54831;SDS011;40730;53.068;6.572;2023-05-07T10:44:38;17.75;;;15.43;;
54831;SDS011;40730;53.068;6.572;2023-05-07T10:47:08;20.30;;;16.33;;
54831;SDS011;40730;53.068;6.572;2023-05-07T10:49:35;16.95;;;15.15;;
54831;SDS011;40730;53.068;6.572;2023-05-07T10:52:12;15.93;;;14.23;;
54831;SDS011;40730;53.068;6.572;2023-05-07T10:54:42;18.73;;;14.63;;
54831;SDS011;40730;53.068;6.572;2023-05-07T11:00:03;14.93;;;13.32;;
54831;SDS011;40730;53.068;6.572;2023-05-07T11:05:25;15.43;;;13.85;;
54831;SDS011;40730;53.068;6.572;2023-05-07T11:07:55;16.40;;;14.73;;
54831;SDS011;40730;53.068;6.572;2023-05-07T11:10:22;15.23;;;13.82;;
54831;SDS011;40730;53.068;6.572;2023-05-07T11:12:51;15.95;;;12.95;;
54831;SDS011;40730;53.068;6.572;2023-05-07T11:15:33;15.05;;;13.50;;
54831;SDS011;40730;53.068;6.572;2023-05-07T11:18:01;16.13;;;14.43;;
54831;SDS011;40730;53.068;6.572;2023-05-07T11:25:59;14.50;;;13.10;;
54831;SDS011;40730;53.068;6.572;2023-05-07T11:28:36;15.40;;;13.40;;
54831;SDS011;40730;53.068;6.572;2023-05-07T11:31:03;14.73;;;13.32;;
54831;SDS011;40730;53.068;6.572;2023-05-07T11:33:32;13.75;;;12.32;;
54831;SDS011;40730;53.068;6.572;2023-05-07T11:35:59;15.65;;;13.32;;
54831;SDS011;40730;53.068;6.572;2023-05-07T11:38:25;15.23;;;13.57;;
54831;SDS011;40730;53.068;6.572;2023-05-07T11:40:55;14.63;;;12.88;;
54831;SDS011;40730;53.068;6.572;2023-05-07T11:43:23;14.63;;;13.23;;
54831;SDS011;40730;53.068;6.572;2023-05-07T11:45:49;14.27;;;12.88;;
54831;SDS011;40730;53.068;6.572;2023-05-07T11:48:15;14.52;;;13.02;;
54831;SDS011;40730;53.068;6.572;2023-05-07T11:50:51;15.60;;;14.00;;
54831;SDS011;40730;53.068;6.572;2023-05-07T11:53:18;14.75;;;13.25;;
54831;SDS011;40730;53.068;6.572;2023-05-07T11:55:45;13.88;;;12.48;;
54831;SDS011;40730;53.068;6.572;2023-05-07T11:58:12;15.10;;;13.60;;
54831;SDS011;40730;53.068;6.572;2023-05-07T12:00:48;14.57;;;13.15;;
54831;SDS011;40730;53.068;6.572;2023-05-07T12:03:15;15.15;;;13.52;;
54831;SDS011;40730;53.068;6.572;2023-05-07T12:05:40;13.77;;;12.48;;
54831;SDS011;40730;53.068;6.572;2023-05-07T12:08:07;14.77;;;13.00;;
54831;SDS011;40730;53.068;6.572;2023-05-07T12:10:33;13.88;;;12.57;;
54831;SDS011;40730;53.068;6.572;2023-05-07T12:12:58;14.05;;;12.65;;
54831;SDS011;40730;53.068;6.572;2023-05-07T12:15:24;13.18;;;11.88;;
54831;SDS011;40730;53.068;6.572;2023-05-07T12:17:49;14.63;;;12.48;;
54831;SDS011;40730;53.068;6.572;2023-05-07T12:20:17;14.13;;;12.80;;
54831;SDS011;40730;53.068;6.572;2023-05-07T12:22:43;15.18;;;12.90;;
54831;SDS011;40730;53.068;6.572;2023-05-07T12:25:09;14.23;;;12.73;;
54831;SDS011;40730;53.068;6.572;2023-05-07T12:27:36;13.25;;;12.05;;
54831;SDS011;40730;53.068;6.572;2023-05-07T12:30:03;12.95;;;11.65;;
54831;SDS011;40730;53.068;6.572;2023-05-07T12:32:28;13.38;;;12.05;;
54831;SDS011;40730;53.068;6.572;2023-05-07T12:34:54;13.63;;;12.23;;
54831;SDS011;40730;53.068;6.572;2023-05-07T12:37:23;12.10;;;11.00;;
54831;SDS011;40730;53.068;6.572;2023-05-07T12:40:03;13.40;;;12.18;;
54831;SDS011;40730;53.068;6.572;2023-05-07T12:42:32;12.43;;;11.25;;
54831;SDS011;40730;53.068;6.572;2023-05-07T12:45:07;12.93;;;11.73;;
54831;SDS011;40730;53.068;6.572;2023-05-07T12:47:36;12.93;;;11.70;;
54831;SDS011;40730;53.068;6.572;2023-05-07T12:50:04;12.60;;;11.43;;
54831;SDS011;40730;53.068;6.572;2023-05-07T12:52:31;13.02;;;11.65;;
54831;SDS011;40730;53.068;6.572;2023-05-07T12:54:57;14.65;;;13.15;;
54831;SDS011;40730;53.068;6.572;2023-05-07T12:57:41;13.60;;;12.25;;
54831;SDS011;40730;53.068;6.572;2023-05-07T13:00:08;13.15;;;11.85;;
54831;SDS011;40730;53.068;6.572;2023-05-07T13:02:34;14.90;;;13.50;;
54831;SDS011;40730;53.068;6.572;2023-05-07T13:05:03;14.40;;;13.05;;
54831;SDS011;40730;53.068;6.572;2023-05-07T13:07:29;13.10;;;11.90;;
54831;SDS011;40730;53.068;6.572;2023-05-07T13:09:54;13.57;;;12.38;;
54831;SDS011;40730;53.068;6.572;2023-05-07T13:12:20;13.95;;;12.55;;
54831;SDS011;40730;53.068;6.572;2023-05-07T13:14:45;13.85;;;12.10;;
54831;SDS011;40730;53.068;6.572;2023-05-07T13:17:11;12.88;;;11.68;;
54831;SDS011;40730;53.068;6.572;2023-05-07T13:19:37;14.38;;;13.07;;
54831;SDS011;40730;53.068;6.572;2023-05-07T13:22:03;14.05;;;12.20;;
54831;SDS011;40730;53.068;6.572;2023-05-07T13:24:29;13.48;;;12.27;;
54831;SDS011;40730;53.068;6.572;2023-05-07T13:26:54;11.80;;;10.70;;
54831;SDS011;40730;53.068;6.572;2023-05-07T13:29:20;15.27;;;13.75;;
54831;SDS011;40730;53.068;6.572;2023-05-07T13:31:53;13.10;;;11.80;;
54831;SDS011;40730;53.068;6.572;2023-05-07T13:34:19;13.57;;;12.27;;
54831;SDS011;40730;53.068;6.572;2023-05-07T13:36:45;13.30;;;11.98;;
54831;SDS011;40730;53.068;6.572;2023-05-07T13:39:11;12.52;;;11.38;;
54831;SDS011;40730;53.068;6.572;2023-05-07T13:41:36;13.63;;;12.23;;
54831;SDS011;40730;53.068;6.572;2023-05-07T13:44:02;12.02;;;10.85;;
54831;SDS011;40730;53.068;6.572;2023-05-07T13:46:27;12.57;;;11.48;;
54831;SDS011;40730;53.068;6.572;2023-05-07T13:48:54;12.05;;;10.95;;
54831;SDS011;40730;53.068;6.572;2023-05-07T13:51:20;13.77;;;12.48;;
54831;SDS011;40730;53.068;6.572;2023-05-07T13:53:46;13.40;;;12.20;;
54831;SDS011;40730;53.068;6.572;2023-05-07T13:56:12;13.27;;;12.00;;
54831;SDS011;40730;53.068;6.572;2023-05-07T13:58:38;12.07;;;11.00;;
54831;SDS011;40730;53.068;6.572;2023-05-07T14:01:03;11.32;;;10.23;;
54831;SDS011;40730;53.068;6.572;2023-05-07T14:03:29;12.48;;;11.25;;
54831;SDS011;40730;53.068;6.572;2023-05-07T14:05:56;12.13;;;10.93;;
54831;SDS011;40730;53.068;6.572;2023-05-07T14:08:24;11.48;;;10.48;;
54831;SDS011;40730;53.068;6.572;2023-05-07T14:10:50;13.77;;;12.52;;
54831;SDS011;40730;53.068;6.572;2023-05-07T14:13:16;13.23;;;11.77;;
54831;SDS011;40730;53.068;6.572;2023-05-07T14:15:42;12.48;;;11.18;;
54831;SDS011;40730;53.068;6.572;2023-05-07T14:18:11;11.73;;;10.60;;
54831;SDS011;40730;53.068;6.572;2023-05-07T14:20:37;12.32;;;11.13;;
54831;SDS011;40730;53.068;6.572;2023-05-07T14:23:03;12.73;;;11.63;;
54831;SDS011;40730;53.068;6.572;2023-05-07T14:25:28;12.43;;;11.13;;
54831;SDS011;40730;53.068;6.572;2023-05-07T14:27:54;12.38;;;11.27;;
54831;SDS011;40730;53.068;6.572;2023-05-07T14:30:19;12.38;;;11.25;;
54831;SDS011;40730;53.068;6.572;2023-05-07T14:32:47;12.88;;;11.68;;
54831;SDS011;40730;53.068;6.572;2023-05-07T14:35:12;14.77;;;10.77;;
54831;SDS011;40730;53.068;6.572;2023-05-07T14:37:38;11.32;;;10.20;;